Etusivu
METAR-TAF:

METAR-TAF

Lentoasemat :

Avenger Field

Sweetwater, Texas, Yhdysvallat

Leveyspiiri: 32-28-02N, Pituuspiiri: 100-27-59W, korkeus merenpinnasta: 725 m

Tämänhetkinen sää

Tämä raportti tehtiin 22 minuuttia sitten, kello 09.55 UTC
Tuuli 10 kn etelästä
Lämpötila 12°C
Kosteus 54%
Ilmanpaine 1019 hPa
Näkyvyys: 16.1 km
selkeää

METAR: KSWW 200955Z AUTO 17010KT 10SM CLR 12/03 A3008 RMK AO2 T01200034

Aika: 05:17 (10:17 UTC)


TAF: puuttuu

Säähavainnot ja -ennusteet yli 4000 lentoasemalta (METAR- ja TAF-raportit).

Käytössä olevat sääasemat on merkitty karttaan keltaisilla ja punaisilla pisteillä.

Aseta hiiri pisteen päälle nähdäksesi sääaseman nimen.

Klikkaa sitten nähdäksesi säähavainnot ja -ennusteet.

Kartan vaihtaminen: klikkaa mustalla rastilla varustettuja vihreitä pisteitä, niin voit zoomata sisään; viivalla varustettua vihreää pistettä, niin voit zoomata ulos tai vihreitä nuolia, niin pääset viereisille kartoille.


METAR-TAF: